createdAt,value
2022-11-24T00:00:51.284Z,100188.78
2022-11-24T00:03:18.075Z,100182.00
2022-11-24T00:05:44.563Z,100167.81
2022-11-24T00:08:11.874Z,100186.38
2022-11-24T00:10:38.262Z,100171.69
2022-11-24T00:13:04.636Z,100188.47
2022-11-24T00:15:31.008Z,100186.84
2022-11-24T00:17:57.463Z,100216.72
2022-11-24T00:20:23.845Z,100221.84
2022-11-24T00:22:50.232Z,100200.88
2022-11-24T00:25:16.683Z,100229.00
2022-11-24T00:27:43.088Z,100219.16
2022-11-24T00:30:09.872Z,100216.56
2022-11-24T00:32:36.239Z,100212.97
2022-11-24T00:35:02.684Z,100211.19
2022-11-24T00:37:29.105Z,100221.06
2022-11-24T00:39:55.490Z,100222.19
2022-11-24T00:42:21.867Z,100209.13
2022-11-24T00:44:48.239Z,100213.16
2022-11-24T00:47:14.750Z,100225.25
2022-11-24T00:49:41.202Z,100242.38
2022-11-24T00:52:07.605Z,100242.22
2022-11-24T00:54:34.311Z,100246.59
2022-11-24T00:57:01.049Z,100252.41
2022-11-24T00:59:27.466Z,100253.69
2022-11-24T01:01:53.864Z,100258.69
2022-11-24T01:04:20.351Z,100242.38
2022-11-24T01:06:46.813Z,100249.47
2022-11-24T01:09:13.198Z,100259.66
2022-11-24T01:11:58.245Z,100243.84
2022-11-24T01:14:25.108Z,100270.94
2022-11-24T01:16:51.673Z,100253.03
2022-11-24T01:19:18.406Z,100255.91
2022-11-24T01:21:44.972Z,100269.47
2022-11-24T01:24:11.847Z,100251.41
2022-11-24T01:26:38.444Z,100263.66
2022-11-24T01:29:04.853Z,100235.56
2022-11-24T01:31:32.921Z,100229.06
2022-11-24T01:33:59.361Z,100270.41
2022-11-24T01:36:25.783Z,100271.88
2022-11-24T01:38:52.194Z,100268.31
2022-11-24T01:41:21.330Z,100281.84
2022-11-24T01:43:48.607Z,100244.88
2022-11-24T01:46:18.460Z,100282.16
2022-11-24T01:49:05.088Z,100275.84
2022-11-24T01:51:34.479Z,100284.72
2022-11-24T01:54:07.760Z,100278.78
2022-11-24T01:56:35.471Z,100271.03
2022-11-24T01:59:03.231Z,100253.72
2022-11-24T02:01:31.417Z,100251.31
2022-11-24T02:03:58.372Z,100281.38
2022-11-24T02:06:29.895Z,100285.88
2022-11-24T02:09:13.718Z,100284.88
2022-11-24T02:11:40.379Z,100281.34
2022-11-24T02:14:09.466Z,100274.28
2022-11-24T02:16:36.623Z,100282.19
2022-11-24T02:19:06.495Z,100292.66
2022-11-24T02:21:32.879Z,100283.78
2022-11-24T02:24:04.112Z,100305.91
2022-11-24T02:26:46.282Z,100313.38
2022-11-24T02:29:14.254Z,100307.25
2022-11-24T02:32:01.320Z,100313.31
2022-11-24T02:34:27.996Z,100325.19
2022-11-24T02:36:54.396Z,100292.38
2022-11-24T02:39:20.862Z,100321.78
2022-11-24T02:41:52.343Z,100296.88
2022-11-24T02:44:20.526Z,100301.78
2022-11-24T02:46:46.910Z,100319.22
2022-11-24T02:49:13.289Z,100316.00
2022-11-24T02:51:39.712Z,100328.59
2022-11-24T02:54:06.097Z,100318.25
2022-11-24T02:56:32.525Z,100335.88
2022-11-24T02:58:58.897Z,100342.50
2022-11-24T03:01:25.358Z,100307.09
2022-11-24T03:03:51.784Z,100322.47
2022-11-24T03:06:18.171Z,100323.13
2022-11-24T03:08:44.760Z,100320.53
2022-11-24T03:11:11.123Z,100320.38
2022-11-24T03:13:37.495Z,100326.03
2022-11-24T03:16:08.490Z,100340.59
2022-11-24T03:18:34.927Z,100333.94
2022-11-24T03:21:01.368Z,100348.34
2022-11-24T03:23:27.792Z,100335.06
2022-11-24T03:25:54.908Z,100345.44
2022-11-24T03:28:21.273Z,100326.00
2022-11-24T03:30:50.951Z,100336.22
2022-11-24T03:33:17.353Z,100342.84
2022-11-24T03:35:43.930Z,100336.53
2022-11-24T03:38:10.355Z,100339.78
2022-11-24T03:40:36.737Z,100341.88
2022-11-24T03:43:03.115Z,100339.94
2022-11-24T03:45:45.434Z,100345.09
2022-11-24T03:48:13.199Z,100339.94
2022-11-24T03:50:39.682Z,100344.28
2022-11-24T03:53:06.061Z,100344.47
2022-11-24T03:55:32.442Z,100350.06
2022-11-24T03:57:58.814Z,100367.22
2022-11-24T04:00:25.207Z,100362.06
2022-11-24T04:02:51.619Z,100361.56
2022-11-24T04:05:18.103Z,100368.31
2022-11-24T04:07:44.547Z,100372.19
2022-11-24T04:10:11.125Z,100383.84
2022-11-24T04:12:46.500Z,100374.63
2022-11-24T04:15:15.431Z,100382.88
2022-11-24T04:17:42.008Z,100390.47
2022-11-24T04:20:09.464Z,100386.44
2022-11-24T04:22:35.818Z,100384.47
2022-11-24T04:25:02.651Z,100402.31
2022-11-24T04:27:29.143Z,100386.44
2022-11-24T04:29:55.519Z,100384.00
2022-11-24T04:32:21.928Z,100408.63
2022-11-24T04:34:48.283Z,100413.63
2022-11-24T04:37:14.673Z,100418.50
2022-11-24T04:39:41.126Z,100392.63
2022-11-24T04:42:07.500Z,100392.91
2022-11-24T04:44:34.273Z,100405.53
2022-11-24T04:47:01.283Z,100418.81
2022-11-24T04:49:27.755Z,100425.13
2022-11-24T04:51:54.123Z,100430.94
2022-11-24T04:54:20.545Z,100416.88
2022-11-24T04:56:50.320Z,100447.53
2022-11-24T04:59:17.218Z,100459.69
2022-11-24T05:01:44.518Z,100467.13
2022-11-24T05:04:11.979Z,100461.59
2022-11-24T05:06:38.611Z,100459.81
2022-11-24T05:09:17.739Z,100450.47
2022-11-24T05:11:44.294Z,100460.63
2022-11-24T05:14:10.698Z,100473.38
2022-11-24T05:16:37.739Z,100487.44
2022-11-24T05:19:04.222Z,100474.53
2022-11-24T05:21:30.619Z,100450.53
2022-11-24T05:23:56.983Z,100497.63
2022-11-24T05:26:23.369Z,100503.75
2022-11-24T05:28:49.775Z,100504.66
2022-11-24T05:31:16.213Z,100508.53
2022-11-24T05:33:43.239Z,100518.72
2022-11-24T05:36:29.843Z,100497.13
2022-11-24T05:38:56.207Z,100515.72
2022-11-24T05:41:22.708Z,100505.94
2022-11-24T05:43:49.103Z,100538.72
2022-11-24T05:46:15.578Z,100545.63
2022-11-24T05:48:42.014Z,100537.69
2022-11-24T05:51:09.488Z,100547.84
2022-11-24T05:53:36.104Z,100560.94
2022-11-24T05:56:03.881Z,100556.69
2022-11-24T05:58:30.240Z,100569.22
2022-11-24T06:00:56.661Z,100555.88
2022-11-24T06:03:23.660Z,100547.44
2022-11-24T06:05:50.083Z,100564.97
2022-11-24T06:08:16.519Z,100575.50
2022-11-24T06:10:42.934Z,100590.56
2022-11-24T06:13:09.383Z,100576.25
2022-11-24T06:15:37.557Z,100578.25
2022-11-24T06:18:04.044Z,100577.75
2022-11-24T06:20:32.906Z,100599.84
2022-11-24T06:23:00.059Z,100588.59
2022-11-24T06:25:26.699Z,100598.72
2022-11-24T06:27:53.124Z,100602.56
2022-11-24T06:30:19.617Z,100627.34
2022-11-24T06:32:49.383Z,100606.94
2022-11-24T06:35:16.452Z,100619.03
2022-11-24T06:37:42.815Z,100637.81
2022-11-24T06:40:09.684Z,100629.41
2022-11-24T06:42:37.130Z,100640.84
2022-11-24T06:45:08.806Z,100643.06
2022-11-24T06:47:35.940Z,100643.47
2022-11-24T06:50:02.689Z,100641.88
2022-11-24T06:52:29.047Z,100650.56
2022-11-24T06:54:55.534Z,100662.53
2022-11-24T06:57:21.984Z,100655.69
2022-11-24T06:59:48.470Z,100676.84
2022-11-24T07:02:14.921Z,100665.03
2022-11-24T07:04:41.266Z,100665.09
2022-11-24T07:07:07.737Z,100681.84
2022-11-24T07:09:34.227Z,100678.88
2022-11-24T07:12:02.241Z,100680.25
2022-11-24T07:14:28.602Z,100670.94
2022-11-24T07:16:55.085Z,100685.63
2022-11-24T07:19:24.852Z,100700.94
2022-11-24T07:21:51.673Z,100690.19
2022-11-24T07:24:18.041Z,100704.63
2022-11-24T07:26:44.434Z,100700.34
2022-11-24T07:29:10.796Z,100698.56
2022-11-24T07:31:37.202Z,100703.22
2022-11-24T07:34:03.669Z,100722.03
2022-11-24T07:36:30.099Z,100703.56
2022-11-24T07:38:56.546Z,100700.47
2022-11-24T07:41:23.003Z,100732.84
2022-11-24T07:43:49.512Z,100767.97
2022-11-24T07:46:18.884Z,100764.38
2022-11-24T07:48:45.832Z,100763.28
2022-11-24T07:51:12.652Z,100748.44
2022-11-24T07:53:39.219Z,100765.28
2022-11-24T07:56:06.294Z,100765.28
2022-11-24T07:58:35.891Z,100778.03
2022-11-24T08:01:13.221Z,100772.28
2022-11-24T08:03:39.978Z,100788.22
2022-11-24T08:08:53.144Z,100794.22
2022-11-24T08:11:19.659Z,100801.75
2022-11-24T08:13:46.144Z,100816.28
2022-11-24T08:16:15.015Z,100803.88
2022-11-24T08:18:41.731Z,100825.03
2022-11-24T08:21:12.195Z,100798.44
2022-11-24T08:23:38.751Z,100808.16
2022-11-24T08:26:08.678Z,100824.03
2022-11-24T08:28:35.854Z,100822.78
2022-11-24T08:31:10.483Z,100829.44
2022-11-24T08:33:37.215Z,100831.50
2022-11-24T08:36:05.464Z,100836.59
2022-11-24T08:38:32.251Z,100838.66
2022-11-24T08:41:11.476Z,100849.81
2022-11-24T08:43:38.573Z,100844.72
2022-11-24T08:46:07.257Z,100833.78
2022-11-24T08:48:34.191Z,100853.56
2022-11-24T08:51:07.217Z,100833.03
2022-11-24T08:53:34.657Z,100849.56
2022-11-24T08:56:01.352Z,100870.13
2022-11-24T08:58:31.469Z,100871.09
2022-11-24T09:01:09.802Z,100876.22
2022-11-24T09:03:37.537Z,100846.47
2022-11-24T09:06:04.138Z,100819.94
2022-11-24T09:08:31.427Z,100839.97
2022-11-24T09:11:17.099Z,100887.97
2022-11-24T09:13:43.811Z,100892.19
2022-11-24T09:16:21.695Z,100891.81
2022-11-24T09:18:48.576Z,100869.72
2022-11-24T09:21:18.111Z,100886.56
2022-11-24T09:23:46.177Z,100872.16
2022-11-24T09:26:20.877Z,100857.47
2022-11-24T09:28:48.059Z,100887.31
2022-11-24T09:31:16.753Z,100896.53
2022-11-24T09:33:43.782Z,100889.75
2022-11-24T09:36:10.472Z,100907.75
2022-11-24T09:38:37.082Z,100914.47
2022-11-24T09:41:34.553Z,100916.81
2022-11-24T09:44:23.742Z,100893.59
2022-11-24T09:47:02.941Z,100921.47
2022-11-24T09:49:48.486Z,100933.69
2022-11-24T09:52:22.212Z,100920.25
2022-11-24T09:54:56.682Z,100939.03
2022-11-24T09:57:25.875Z,100922.84
2022-11-24T09:59:52.307Z,100934.22
2022-11-24T10:02:18.773Z,100927.91
2022-11-24T10:04:46.519Z,100944.38
2022-11-24T10:07:21.166Z,100957.63
2022-11-24T10:10:09.571Z,100954.25
2022-11-24T10:13:05.158Z,100941.81
2022-11-24T10:15:57.258Z,100963.03
2022-11-24T10:19:00.870Z,100943.34
2022-11-24T10:21:51.147Z,100946.44
2022-11-24T10:24:20.443Z,100963.25
2022-11-24T10:26:51.910Z,100939.22
2022-11-24T10:29:24.947Z,100977.88
2022-11-24T10:31:54.256Z,100961.34
2022-11-24T10:34:34.437Z,100966.06
2022-11-24T10:37:34.679Z,100987.28
2022-11-24T10:40:40.605Z,100973.91
2022-11-24T10:43:01.260Z,100976.97
2022-11-24T10:45:28.902Z,100982.56
2022-11-24T10:47:55.637Z,100977.66
2022-11-24T10:50:23.841Z,100956.84
2022-11-24T10:53:08.555Z,100990.03
2022-11-24T10:55:56.764Z,100999.28
2022-11-24T10:58:42.642Z,100986.47
2022-11-24T11:01:15.336Z,101005.13
2022-11-24T11:03:49.482Z,100978.88
2022-11-24T11:06:25.660Z,101010.97
2022-11-24T11:09:24.704Z,101016.19
2022-11-24T11:11:53.130Z,100994.28
2022-11-24T11:14:31.169Z,101000.28
2022-11-24T11:16:58.003Z,101008.72
2022-11-24T11:19:54.233Z,101004.97
2022-11-24T11:22:29.179Z,101015.53
2022-11-24T11:25:41.042Z,101023.44
2022-11-24T11:28:28.598Z,101004.31
2022-11-24T11:31:18.110Z,101013.41
2022-11-24T11:34:04.585Z,101025.41
2022-11-24T11:36:33.617Z,101000.28
2022-11-24T11:39:00.071Z,100966.53
2022-11-24T11:41:31.637Z,101005.81
2022-11-24T11:44:21.605Z,101004.47
2022-11-24T11:46:48.179Z,100999.63
2022-11-24T11:49:14.691Z,100979.34
2022-11-24T11:51:52.975Z,101017.78
2022-11-24T11:54:34.724Z,101008.66
2022-11-24T11:57:24.855Z,101020.38
2022-11-24T12:00:08.065Z,101020.84
2022-11-24T12:02:51.700Z,101024.94
2022-11-24T12:05:53.926Z,101026.84
2022-11-24T12:08:56.025Z,101012.59
2022-11-24T12:11:33.009Z,101013.41
2022-11-24T12:14:31.504Z,101026.84
2022-11-24T12:17:07.545Z,101003.84
2022-11-24T12:19:45.485Z,100985.47
2022-11-24T12:22:39.083Z,101014.53
2022-11-24T12:25:28.130Z,101015.19
2022-11-24T12:28:24.359Z,101022.19
2022-11-24T12:31:06.961Z,101031.09
2022-11-24T12:33:52.374Z,101023.97
2022-11-24T12:36:35.670Z,101017.78
2022-11-24T12:39:07.000Z,101035.66
2022-11-24T12:41:53.082Z,101008.53
2022-11-24T12:44:30.959Z,101022.34
2022-11-24T12:47:30.798Z,101037.44
2022-11-24T12:50:14.131Z,101027.41
2022-11-24T12:52:58.675Z,101043.63
2022-11-24T12:55:26.537Z,101041.34
2022-11-24T12:58:11.200Z,101033.03
2022-11-24T13:01:08.327Z,101040.19
2022-11-24T13:03:46.374Z,101025.91
2022-11-24T13:06:23.730Z,101033.53
2022-11-24T13:08:50.173Z,101031.28
2022-11-24T13:11:25.171Z,101035.97
2022-11-24T13:14:04.713Z,101015.88
2022-11-24T13:16:48.530Z,101032.41
2022-11-24T13:19:20.932Z,101038.25
2022-11-24T13:21:51.706Z,101040.84
2022-11-24T13:24:19.264Z,101033.22
2022-11-24T13:26:48.943Z,101034.69
2022-11-24T13:29:25.492Z,101034.19
2022-11-24T13:31:52.226Z,101021.69
2022-11-24T13:34:40.514Z,101036.13
2022-11-24T13:37:31.459Z,101036.31
2022-11-24T13:40:14.217Z,101038.22
2022-11-24T13:43:12.726Z,101040.69
2022-11-24T13:45:39.061Z,101046.19
2022-11-24T13:48:21.492Z,101044.75
2022-11-24T13:50:51.871Z,101048.94
2022-11-24T13:53:33.311Z,101038.59
2022-11-24T13:56:02.641Z,101045.88
2022-11-24T13:58:35.982Z,101033.03
2022-11-24T14:01:07.220Z,101047.97
2022-11-24T14:03:47.533Z,101027.69
2022-11-24T14:06:40.383Z,101046.84
2022-11-24T14:09:27.008Z,101044.41
2022-11-24T14:12:12.181Z,101039.72
2022-11-24T14:14:39.185Z,101049.31
2022-11-24T14:17:19.765Z,101042.63
2022-11-24T14:19:53.997Z,101036.63
2022-11-24T14:22:21.825Z,101020.91
2022-11-24T14:24:53.035Z,101026.41
2022-11-24T14:27:26.664Z,101033.88
2022-11-24T14:29:58.529Z,101011.63
2022-11-24T14:32:25.047Z,101025.09
2022-11-24T14:34:52.116Z,101025.44
2022-11-24T14:37:19.571Z,101042.63
2022-11-24T14:39:46.501Z,101040.81
2022-11-24T14:42:23.060Z,101035.47
2022-11-24T14:44:58.654Z,101030.63
2022-11-24T14:47:33.771Z,101035.28
2022-11-24T14:50:19.212Z,101031.09
2022-11-24T14:52:55.654Z,101019.38
2022-11-24T14:55:30.359Z,101035.94
2022-11-24T14:57:57.404Z,101033.97
2022-11-24T15:00:28.434Z,101033.13
2022-11-24T15:03:08.454Z,101037.47
2022-11-24T15:05:55.622Z,101023.97
2022-11-24T15:08:24.230Z,101040.03
2022-11-24T15:10:57.328Z,101024.91
2022-11-24T15:13:24.499Z,101030.59
2022-11-24T15:16:17.295Z,101040.41
2022-11-24T15:18:46.734Z,101025.09
2022-11-24T15:21:18.925Z,101040.06
2022-11-24T15:24:14.091Z,101031.41
2022-11-24T15:26:42.291Z,101044.41
2022-11-24T15:29:10.241Z,101051.63
2022-11-24T15:31:37.316Z,101049.19
2022-11-24T15:34:03.853Z,101049.91
2022-11-24T15:36:30.225Z,101052.22
2022-11-24T15:38:56.578Z,101042.63
2022-11-24T15:41:29.063Z,101011.38
2022-11-24T15:43:59.091Z,101027.28
2022-11-24T15:46:27.095Z,101056.13
2022-11-24T15:48:53.961Z,101041.78
2022-11-24T15:51:20.883Z,101041.50
2022-11-24T15:53:51.172Z,101023.91
2022-11-24T15:56:25.366Z,101046.31
2022-11-24T15:58:52.698Z,101040.75
2022-11-24T16:01:20.653Z,101043.66
2022-11-24T16:03:48.660Z,101042.84
2022-11-24T16:06:24.073Z,101042.94
2022-11-24T16:08:52.072Z,101038.34
2022-11-24T16:11:18.440Z,101043.53
2022-11-24T16:13:50.316Z,101040.19
2022-11-24T16:16:19.642Z,101040.19
2022-11-24T16:18:46.125Z,101043.69
2022-11-24T16:21:12.504Z,101038.50
2022-11-24T16:23:38.920Z,101034.75
2022-11-24T16:26:06.856Z,101023.50
2022-11-24T16:28:33.243Z,101045.75
2022-11-24T16:30:59.692Z,101058.31
2022-11-24T16:33:26.144Z,101031.84
2022-11-24T16:35:52.530Z,101020.16
2022-11-24T16:38:19.662Z,101037.53
2022-11-24T16:40:52.864Z,101052.75
2022-11-24T16:43:19.626Z,101052.22
2022-11-24T16:45:46.481Z,101048.84
2022-11-24T16:48:12.935Z,101049.78
2022-11-24T16:50:39.321Z,101040.31
2022-11-24T16:53:05.808Z,101050.53
2022-11-24T16:55:32.178Z,101047.13
2022-11-24T16:57:58.539Z,101027.88
2022-11-24T17:00:24.938Z,101049.25
2022-11-24T17:02:51.482Z,101055.28
2022-11-24T17:05:17.949Z,101036.94
2022-11-24T17:07:44.401Z,101052.81
2022-11-24T17:10:11.876Z,101033.75
2022-11-24T17:12:38.406Z,101039.59
2022-11-24T17:18:22.194Z,101040.13
2022-11-24T17:20:38.347Z,101035.09
2022-11-24T17:23:04.703Z,101044.19
2022-11-24T17:25:32.279Z,101026.69
2022-11-24T17:27:58.838Z,101054.06
2022-11-24T17:30:25.311Z,101035.75
2022-11-24T17:32:56.616Z,101044.31
2022-11-24T17:35:23.587Z,101045.13
2022-11-24T17:37:50.003Z,101028.44
2022-11-24T17:40:34.358Z,101029.81
2022-11-24T17:43:00.822Z,101022.94
2022-11-24T17:45:29.045Z,101045.88
2022-11-24T17:47:56.222Z,101004.81
2022-11-24T17:50:26.131Z,101035.22
2022-11-24T17:52:53.583Z,101040.38
2022-11-24T17:55:20.048Z,101031.97
2022-11-24T17:57:46.452Z,101042.91
2022-11-24T18:00:13.532Z,101035.06
2022-11-24T18:02:40.042Z,101038.47
2022-11-24T18:05:06.835Z,101040.09
2022-11-24T18:07:35.925Z,101044.53
2022-11-24T18:10:02.333Z,101044.31
2022-11-24T18:12:28.739Z,101023.81
2022-11-24T18:14:55.201Z,101040.38
2022-11-24T18:17:21.592Z,101042.69
2022-11-24T18:19:47.959Z,101023.22
2022-11-24T18:22:14.306Z,101006.16
2022-11-24T18:24:40.947Z,101025.00
2022-11-24T18:27:07.414Z,101046.31
2022-11-24T18:29:33.819Z,101028.78
2022-11-24T18:32:00.289Z,101039.50
2022-11-24T18:34:26.781Z,101017.91
2022-11-24T18:36:53.251Z,101012.22
2022-11-24T18:39:19.667Z,101003.25
2022-11-24T18:41:46.679Z,101023.75
2022-11-24T18:44:13.088Z,101016.16
2022-11-24T18:46:39.446Z,101034.75
2022-11-24T18:49:06.919Z,101028.13
2022-11-24T18:51:33.714Z,101007.78
2022-11-24T18:54:02.005Z,101025.16
2022-11-24T18:56:29.053Z,101043.03
2022-11-24T18:58:56.300Z,100998.91
2022-11-24T19:01:25.103Z,101021.53
2022-11-24T19:03:54.014Z,101028.19
2022-11-24T19:06:22.131Z,101009.72
2022-11-24T19:08:48.891Z,101019.25
2022-11-24T19:11:26.300Z,101005.97
2022-11-24T19:13:52.745Z,101023.81
2022-11-24T19:16:20.288Z,101008.66
2022-11-24T19:18:53.634Z,101011.53
2022-11-24T19:21:21.191Z,101009.78
2022-11-24T19:23:47.797Z,101005.94
2022-11-24T19:26:14.211Z,100991.84
2022-11-24T19:28:40.576Z,100983.19
2022-11-24T19:31:09.153Z,101001.50
2022-11-24T19:33:36.426Z,101008.94
2022-11-24T19:36:14.323Z,100973.00
2022-11-24T19:38:41.818Z,101008.03
2022-11-24T19:41:13.527Z,101010.59
2022-11-24T19:43:40.722Z,100997.94
2022-11-24T19:46:09.655Z,100992.69
2022-11-24T19:48:43.656Z,101005.47
2022-11-24T19:51:13.158Z,100992.28
2022-11-24T19:53:39.625Z,101002.50
2022-11-24T19:56:07.759Z,101006.66
2022-11-24T19:58:34.787Z,100998.00
2022-11-24T20:01:11.686Z,100992.81
2022-11-24T20:03:39.062Z,101015.59
2022-11-24T20:06:06.763Z,101001.91
2022-11-24T20:08:34.551Z,101014.25
2022-11-24T20:11:08.099Z,101008.72
2022-11-24T20:13:35.942Z,100973.41
2022-11-24T20:16:03.860Z,101001.31
2022-11-24T20:18:31.574Z,101005.13
2022-11-24T20:21:05.199Z,100989.44
2022-11-24T20:23:31.979Z,100991.47
2022-11-24T20:26:10.102Z,100997.28
2022-11-24T20:28:37.015Z,100998.38
2022-11-24T20:31:05.728Z,101002.44
2022-11-24T20:33:32.230Z,100993.22
2022-11-24T20:36:03.634Z,100985.59
2022-11-24T20:38:30.720Z,100976.09
2022-11-24T20:41:16.494Z,100987.72
2022-11-24T20:43:44.177Z,100998.00
2022-11-24T20:46:11.985Z,100989.78
2022-11-24T20:48:38.971Z,100996.41
2022-11-24T20:51:07.895Z,100998.19
2022-11-24T20:53:35.166Z,100992.69
2022-11-24T20:56:06.661Z,100959.22
2022-11-24T20:58:34.502Z,101007.84
2022-11-24T21:01:09.792Z,101000.16
2022-11-24T21:03:42.598Z,101001.50
2022-11-24T21:06:11.650Z,100999.44
2022-11-24T21:08:39.153Z,100998.63
2022-11-24T21:11:06.694Z,100971.81
2022-11-24T21:13:34.454Z,100973.06
2022-11-24T21:16:16.638Z,100977.19
2022-11-24T21:18:44.582Z,100990.47
2022-11-24T21:21:11.794Z,100967.88
2022-11-24T21:23:38.374Z,100985.72
2022-11-24T21:26:07.449Z,100992.53
2022-11-24T21:28:36.848Z,100976.69
2022-11-24T21:31:08.288Z,100989.56
2022-11-24T21:33:38.547Z,100986.00
2022-11-24T21:36:05.643Z,100984.25
2022-11-24T21:38:32.059Z,100979.78
2022-11-24T21:41:06.308Z,100978.84
2022-11-24T21:43:33.185Z,100983.78
2022-11-24T21:46:01.170Z,100973.44
2022-11-24T21:48:27.618Z,100976.56
2022-11-24T21:50:54.018Z,100976.94
2022-11-24T21:53:20.383Z,100971.28
2022-11-24T21:56:00.834Z,100974.19
2022-11-24T21:58:27.995Z,100971.97
2022-11-24T22:00:54.929Z,100973.44
2022-11-24T22:03:21.594Z,100978.00
2022-11-24T22:05:55.086Z,100960.00
2022-11-24T22:08:22.145Z,100956.22
2022-11-24T22:10:48.506Z,100941.31
2022-11-24T22:13:15.033Z,100954.59
2022-11-24T22:15:41.384Z,100939.91
2022-11-24T22:18:07.781Z,100928.72
2022-11-24T22:20:34.399Z,100945.41
2022-11-24T22:23:00.752Z,100930.38
2022-11-24T22:25:27.119Z,100947.06
2022-11-24T22:27:53.490Z,100935.91
2022-11-24T22:30:19.922Z,100942.25
2022-11-24T22:32:46.335Z,100943.59
2022-11-24T22:35:12.695Z,100937.31
2022-11-24T22:37:39.104Z,100936.72
2022-11-24T22:40:06.134Z,100939.66
2022-11-24T22:42:32.481Z,100938.50
2022-11-24T22:44:58.835Z,100939.06
2022-11-24T22:47:25.336Z,100937.59
2022-11-24T22:49:51.734Z,100940.06
2022-11-24T22:52:18.141Z,100937.22
2022-11-24T22:54:44.548Z,100937.91
2022-11-24T22:57:10.945Z,100940.06
2022-11-24T22:59:37.429Z,100949.66
2022-11-24T23:02:03.787Z,100951.81
2022-11-24T23:04:30.278Z,100946.03
2022-11-24T23:06:56.740Z,100945.88
2022-11-24T23:09:23.090Z,100944.03
2022-11-24T23:11:49.510Z,100950.44
2022-11-24T23:14:16.250Z,100960.50
2022-11-24T23:16:43.087Z,100947.06
2022-11-24T23:19:09.638Z,100943.97
2022-11-24T23:21:38.183Z,100931.63
2022-11-24T23:24:08.626Z,100945.22
2022-11-24T23:26:37.045Z,100937.19
2022-11-24T23:29:04.602Z,100953.56
2022-11-24T23:31:31.219Z,100928.06
2022-11-24T23:34:00.584Z,100938.13
2022-11-24T23:36:27.919Z,100949.78
2022-11-24T23:38:54.500Z,100932.16
2022-11-24T23:41:23.291Z,100930.59
2022-11-24T23:43:50.080Z,100932.00
2022-11-24T23:46:17.681Z,100949.34
2022-11-24T23:48:44.882Z,100950.41
2022-11-24T23:51:16.836Z,100952.09
2022-11-24T23:53:43.874Z,100947.44
2022-11-24T23:56:16.042Z,100957.41
2022-11-24T23:58:42.676Z,100945.78
